Time;durP1;ratioP1;P1;durP2;ratioP2;P2;SDS_P1;SDS_P2;PMS_P1;PMS_P2;Temp;Humidity;BMP_temperature;BMP_pressure;BME280_temperature;BME280_humidity;BME280_pressure;Samples;Min_cycle;Max_cycle;Signal;HPM_P1;HPM_P2
2023/04/12 00:01:28;;;;;;;0.25;0.25;;;2.30;99.90;;;;;;5056529;28;20021;-76
2023/04/12 00:03:53;;;;;;;0.20;0.20;;;2.20;99.90;;;;;;5056003;28;20025;-76
2023/04/12 00:06:31;;;;;;;0.10;0.10;;;2.10;99.90;;;;;;5056018;28;20491;-76
2023/04/12 00:09:00;;;;;;;0.15;0.15;;;2.10;99.90;;;;;;5055586;28;20059;-76
2023/04/12 00:11:27;;;;;;;0.10;0.10;;;2.10;99.90;;;;;;5056415;28;20496;-76
2023/04/12 00:13:52;;;;;;;0.20;0.20;;;2.20;99.90;;;;;;5040555;28;20025;-76
2023/04/12 00:16:18;;;;;;;0.17;0.17;;;2.20;99.90;;;;;;5036176;28;20026;-76
2023/04/12 00:18:44;;;;;;;0.20;0.20;;;2.30;99.90;;;;;;5036196;28;20495;-76
2023/04/12 00:21:10;;;;;;;0.20;0.20;;;2.40;99.90;;;;;;5035231;28;20376;-76
2023/04/12 00:23:36;;;;;;;0.20;0.20;;;2.50;99.90;;;;;;5036334;28;20033;-76
2023/04/12 00:26:03;;;;;;;0.32;0.32;;;2.50;99.90;;;;;;5036176;28;20489;-76
2023/04/12 00:28:28;;;;;;;0.20;0.20;;;2.60;99.90;;;;;;5036074;28;20082;-76
2023/04/12 00:30:54;;;;;;;0.20;0.20;;;2.60;99.90;;;;;;5035738;28;20434;-77
2023/04/12 00:33:19;;;;;;;0.20;0.20;;;2.60;99.90;;;;;;5035903;28;20036;-76
2023/04/12 00:38:38;;;;;;;0.20;0.20;;;2.60;99.90;;;;;;4998371;28;20058;-75
2023/04/12 00:41:04;;;;;;;0.20;0.20;;;2.60;99.90;;;;;;4998273;28;20033;-74
2023/04/12 00:43:29;;;;;;;0.20;0.20;;;2.50;99.90;;;;;;4998434;28;20033;-74
2023/04/12 00:45:56;;;;;;;0.20;0.20;;;2.50;99.90;;;;;;4998624;28;20480;-74
2023/04/12 00:48:26;;;;;;;0.20;0.20;;;2.50;99.90;;;;;;4998607;28;20018;-74
2023/04/12 00:50:54;;;;;;;0.15;0.15;;;2.40;99.90;;;;;;4998489;28;20080;-74
2023/04/12 00:53:21;;;;;;;0.20;0.20;;;2.40;99.90;;;;;;4998169;28;20050;-74
2023/04/12 00:55:48;;;;;;;0.20;0.20;;;2.40;99.90;;;;;;4979444;28;20026;-74
2023/04/12 00:58:15;;;;;;;0.20;0.20;;;2.40;99.90;;;;;;4997910;28;20384;-74
2023/04/12 01:00:48;;;;;;;0.20;0.20;;;2.50;99.90;;;;;;4980969;28;20026;-74
2023/04/12 01:03:15;;;;;;;0.20;0.20;;;2.50;99.90;;;;;;4981156;28;20050;-74
2023/04/12 01:05:51;;;;;;;0.20;0.20;;;2.60;99.90;;;;;;4997532;28;20037;-74
2023/04/12 01:08:21;;;;;;;0.20;0.20;;;2.60;99.90;;;;;;4997896;28;20038;-74
2023/04/12 01:11:13;;;;;;;0.20;0.20;;;2.60;99.90;;;;;;4997764;28;20068;-74
2023/04/12 01:13:47;;;;;;;0.20;0.20;;;2.70;99.90;;;;;;4982114;28;20030;-74
2023/04/12 01:16:33;;;;;;;0.30;0.30;;;2.80;99.90;;;;;;4978975;28;20027;-74
2023/04/12 01:19:10;;;;;;;0.20;0.20;;;2.90;99.90;;;;;;4961398;28;20023;-74
2023/04/12 01:21:39;;;;;;;0.20;0.20;;;2.90;99.90;;;;;;4978523;28;20386;-74
2023/04/12 01:24:30;;;;;;;0.10;0.10;;;2.90;99.90;;;;;;4977218;28;20393;-74
2023/04/12 01:26:59;;;;;;;0.20;0.20;;;3.00;99.90;;;;;;4983570;28;20018;-74
2023/04/12 01:29:27;;;;;;;0.20;0.20;;;3.10;99.90;;;;;;4998079;28;20096;-74
2023/04/12 01:31:57;;;;;;;0.20;0.20;;;3.10;99.90;;;;;;4997011;28;20022;-74
2023/04/12 01:34:27;;;;;;;0.20;0.20;;;3.10;99.90;;;;;;4980114;28;20125;-74
2023/04/12 01:36:55;;;;;;;0.20;0.20;;;3.20;99.90;;;;;;4997296;28;20074;-74
2023/04/12 01:39:21;;;;;;;0.20;0.20;;;3.20;99.90;;;;;;4997644;28;20034;-74
2023/04/12 01:41:47;;;;;;;0.20;0.20;;;3.20;99.90;;;;;;4998069;28;20073;-74
2023/04/12 01:44:17;;;;;;;0.10;0.10;;;3.20;99.90;;;;;;4998060;28;20033;-74
2023/04/12 01:46:47;;;;;;;0.20;0.20;;;3.20;99.90;;;;;;4996731;28;20105;-74
2023/04/12 01:49:14;;;;;;;0.20;0.20;;;3.30;99.90;;;;;;4996828;28;20097;-74
2023/04/12 01:52:06;;;;;;;0.17;0.17;;;3.30;99.90;;;;;;4979848;28;20482;-74
2023/04/12 01:54:37;;;;;;;0.17;0.17;;;3.30;99.90;;;;;;4997220;28;20036;-74
2023/04/12 01:57:04;;;;;;;0.20;0.20;;;3.30;99.90;;;;;;4996627;28;20034;-74
2023/04/12 01:59:39;;;;;;;0.17;0.17;;;3.30;99.90;;;;;;4968552;28;20115;-74
2023/04/12 02:02:09;;;;;;;0.10;0.10;;;3.30;99.90;;;;;;4977811;28;20023;-74
2023/04/12 02:04:37;;;;;;;0.30;0.30;;;3.40;99.90;;;;;;4960824;28;20046;-75
2023/04/12 02:07:03;;;;;;;0.20;0.20;;;3.40;99.90;;;;;;4976743;28;20035;-74
2023/04/12 02:09:28;;;;;;;0.10;0.10;;;3.60;99.90;;;;;;4977185;28;20030;-74
2023/04/12 02:11:55;;;;;;;0.15;0.15;;;3.60;99.90;;;;;;4976768;28;20097;-74
2023/04/12 02:14:21;;;;;;;0.10;0.10;;;3.70;99.90;;;;;;4977378;28;20026;-74
2023/04/12 02:16:47;;;;;;;0.20;0.20;;;3.70;99.90;;;;;;4977717;28;20421;-74
2023/04/12 02:19:12;;;;;;;0.20;0.20;;;3.70;99.90;;;;;;4977646;28;20484;-74
2023/04/12 02:21:45;;;;;;;0.20;0.20;;;3.60;99.90;;;;;;4977208;28;20026;-74
2023/04/12 02:24:11;;;;;;;0.20;0.20;;;3.70;99.90;;;;;;4976997;28;20038;-74
2023/04/12 02:26:38;;;;;;;0.20;0.20;;;3.70;99.90;;;;;;4977187;28;20031;-74
2023/04/12 02:29:07;;;;;;;0.15;0.15;;;3.70;99.90;;;;;;4960221;28;20027;-74
2023/04/12 02:31:35;;;;;;;0.10;0.10;;;3.70;99.90;;;;;;4977460;28;20079;-74
2023/04/12 02:34:01;;;;;;;0.20;0.20;;;3.70;99.90;;;;;;4977165;28;20114;-74
2023/04/12 02:36:26;;;;;;;0.17;0.17;;;3.70;99.90;;;;;;4976613;28;20073;-75
2023/04/12 02:38:53;;;;;;;0.20;0.20;;;3.70;99.90;;;;;;4976840;28;20026;-74
2023/04/12 02:41:20;;;;;;;0.20;0.20;;;3.80;99.90;;;;;;4959850;28;20077;-74
2023/04/12 02:43:45;;;;;;;0.20;0.20;;;3.80;99.90;;;;;;4977008;28;20035;-74
2023/04/12 02:46:18;;;;;;;0.10;0.10;;;3.80;99.90;;;;;;4976532;28;20081;-74
2023/04/12 02:48:44;;;;;;;0.20;0.20;;;3.80;99.90;;;;;;4959578;28;20080;-74
2023/04/12 02:51:10;;;;;;;0.10;0.10;;;3.90;99.90;;;;;;4976670;28;20038;-74
2023/04/12 02:53:35;;;;;;;0.10;0.10;;;4.00;99.90;;;;;;4977151;28;20031;-74
2023/04/12 02:56:06;;;;;;;0.10;0.10;;;4.00;99.90;;;;;;4977821;28;20027;-74
2023/04/12 02:58:33;;;;;;;0.20;0.20;;;4.00;99.90;;;;;;4959771;28;20393;-74
2023/04/12 03:00:59;;;;;;;0.10;0.10;;;4.00;99.90;;;;;;4959268;28;20019;-74
2023/04/12 03:03:25;;;;;;;0.22;0.22;;;4.00;99.90;;;;;;4958353;28;20034;-74
2023/04/12 03:05:51;;;;;;;0.10;0.10;;;4.00;99.90;;;;;;4940566;29;20401;-75
2023/04/12 03:08:18;;;;;;;0.10;0.10;;;4.00;99.90;;;;;;4957622;29;20095;-74
2023/04/12 03:10:43;;;;;;;0.10;0.10;;;4.10;99.90;;;;;;4971785;28;20027;-74
2023/04/12 03:13:09;;;;;;;0.15;0.15;;;4.10;99.90;;;;;;4958514;28;20058;-75
2023/04/12 03:15:35;;;;;;;0.17;0.17;;;4.10;99.90;;;;;;4976590;28;20019;-75
2023/04/12 03:18:01;;;;;;;0.20;0.20;;;4.20;99.90;;;;;;4981031;28;20464;-74
2023/04/12 03:20:27;;;;;;;0.20;0.20;;;4.20;99.90;;;;;;4994500;28;20030;-74
2023/04/12 03:22:55;;;;;;;0.20;0.20;;;4.30;99.90;;;;;;4984841;28;20573;-75
2023/04/12 03:25:21;;;;;;;0.15;0.15;;;4.30;99.90;;;;;;5002232;28;20030;-75
2023/04/12 03:27:46;;;;;;;0.20;0.20;;;4.40;99.90;;;;;;5002385;28;20026;-74
2023/04/12 03:30:12;;;;;;;0.20;0.20;;;4.40;99.90;;;;;;5002635;28;20038;-75
2023/04/12 03:32:41;;;;;;;0.15;0.15;;;4.40;99.90;;;;;;4987466;28;20031;-74
2023/04/12 03:35:10;;;;;;;0.10;0.10;;;4.50;99.90;;;;;;4964989;28;20115;-75
2023/04/12 03:37:36;;;;;;;0.20;0.20;;;4.50;99.90;;;;;;4982612;28;20039;-75
2023/04/12 03:40:01;;;;;;;0.20;0.20;;;4.50;99.90;;;;;;4988263;28;20049;-75
2023/04/12 03:42:28;;;;;;;0.10;0.10;;;4.50;99.90;;;;;;4991830;28;20046;-75
2023/04/12 03:44:53;;;;;;;0.10;0.10;;;4.60;99.90;;;;;;4999554;28;20411;-75
2023/04/12 03:47:19;;;;;;;0.15;0.15;;;4.60;99.90;;;;;;5002173;28;20023;-75
2023/04/12 03:49:48;;;;;;;0.13;0.13;;;4.60;99.90;;;;;;4990391;28;20030;-74
2023/04/12 03:52:14;;;;;;;0.10;0.10;;;4.60;99.90;;;;;;4982980;28;20030;-74
2023/04/12 03:54:39;;;;;;;0.20;0.20;;;4.50;99.90;;;;;;4983011;28;20030;-74
2023/04/12 03:57:08;;;;;;;0.10;0.10;;;4.50;99.90;;;;;;4982504;28;20058;-75
2023/04/12 03:59:33;;;;;;;0.20;0.20;;;4.40;99.90;;;;;;4964902;28;20116;-75
2023/04/12 04:02:00;;;;;;;0.20;0.20;;;4.50;99.90;;;;;;4982896;28;20480;-75
2023/04/12 04:04:26;;;;;;;0.10;0.10;;;4.40;99.90;;;;;;4982416;28;20022;-74
2023/04/12 04:06:52;;;;;;;0.10;0.10;;;4.40;99.90;;;;;;4982473;28;20030;-74
2023/04/12 04:09:18;;;;;;;0.10;0.10;;;4.40;99.90;;;;;;4982415;28;20452;-74
2023/04/12 04:11:44;;;;;;;0.20;0.20;;;4.40;99.90;;;;;;4982203;28;20031;-75
2023/04/12 04:14:09;;;;;;;0.17;0.17;;;4.40;99.90;;;;;;4965233;28;20026;-74
2023/04/12 04:16:35;;;;;;;0.17;0.17;;;4.30;99.90;;;;;;4982386;28;20027;-74
2023/04/12 04:19:04;;;;;;;0.20;0.20;;;4.30;99.90;;;;;;4956801;28;20482;-74
2023/04/12 04:21:31;;;;;;;0.20;0.20;;;4.30;99.90;;;;;;4945354;29;20035;-74
2023/04/12 04:23:59;;;;;;;0.20;0.20;;;4.30;99.90;;;;;;4945926;29;20077;-75
2023/04/12 04:26:37;;;;;;;0.20;0.20;;;4.30;99.90;;;;;;4945470;29;20027;-75
2023/04/12 04:29:04;;;;;;;0.17;0.17;;;4.30;99.90;;;;;;4961197;28;20094;-74
2023/04/12 04:31:35;;;;;;;0.20;0.20;;;4.30;99.90;;;;;;4996976;28;20041;-74
2023/04/12 04:34:04;;;;;;;0.20;0.20;;;4.30;99.90;;;;;;4999003;28;20033;-74
2023/04/12 04:36:35;;;;;;;0.13;0.13;;;4.30;99.90;;;;;;4998453;28;20076;-74
2023/04/12 04:39:01;;;;;;;0.10;0.10;;;4.30;99.90;;;;;;4998061;28;20036;-75
2023/04/12 04:41:26;;;;;;;0.20;0.20;;;4.30;99.90;;;;;;4998671;28;20018;-74
2023/04/12 04:43:53;;;;;;;0.20;0.20;;;4.40;99.90;;;;;;4998517;28;20105;-74
2023/04/12 04:46:20;;;;;;;0.25;0.25;;;4.30;99.90;;;;;;4998837;28;20022;-74
2023/04/12 04:48:50;;;;;;;0.20;0.20;;;4.40;99.90;;;;;;4980956;28;20061;-74
2023/04/12 04:51:16;;;;;;;0.20;0.20;;;4.40;99.90;;;;;;4998204;28;20023;-74
2023/04/12 04:53:42;;;;;;;0.10;0.10;;;4.50;99.90;;;;;;4980795;28;20045;-75
2023/04/12 04:56:08;;;;;;;0.20;0.20;;;4.40;99.90;;;;;;4981004;28;20023;-74
2023/04/12 04:58:34;;;;;;;0.10;0.10;;;4.40;99.90;;;;;;4998463;28;20033;-74
2023/04/12 05:01:00;;;;;;;0.20;0.20;;;4.50;99.90;;;;;;4980945;28;20027;-74
2023/04/12 05:03:27;;;;;;;0.20;0.20;;;4.60;99.90;;;;;;4977906;28;20501;-74
2023/04/12 05:05:55;;;;;;;0.20;0.20;;;4.60;99.90;;;;;;4961783;28;20027;-74
2023/04/12 05:08:21;;;;;;;0.10;0.10;;;4.70;99.90;;;;;;4978904;28;20039;-74
2023/04/12 05:10:54;;;;;;;0.20;0.20;;;4.70;99.90;;;;;;4978711;28;20023;-74
2023/04/12 05:13:21;;;;;;;0.20;0.20;;;4.70;99.90;;;;;;4976521;28;20027;-74
2023/04/12 05:15:46;;;;;;;0.20;0.20;;;4.70;99.90;;;;;;4958840;29;20477;-74
2023/04/12 05:18:13;;;;;;;0.20;0.20;;;4.70;99.90;;;;;;4958782;28;20070;-74
2023/04/12 05:20:38;;;;;;;0.20;0.20;;;4.70;99.90;;;;;;4959442;29;20082;-74
2023/04/12 05:23:04;;;;;;;0.20;0.20;;;4.60;99.90;;;;;;4959118;29;20027;-74
2023/04/12 05:25:30;;;;;;;0.20;0.20;;;4.60;99.90;;;;;;4964528;28;20029;-74
2023/04/12 05:27:55;;;;;;;0.22;0.22;;;4.60;99.90;;;;;;4997210;28;20101;-74
2023/04/12 05:30:21;;;;;;;0.30;0.30;;;4.70;99.90;;;;;;4980540;28;20546;-74
2023/04/12 05:32:46;;;;;;;0.20;0.20;;;4.80;99.90;;;;;;4997707;28;20037;-74
2023/04/12 05:35:15;;;;;;;0.10;0.10;;;4.90;99.90;;;;;;4997411;28;20033;-74
2023/04/12 05:37:40;;;;;;;0.10;0.10;;;5.00;99.90;;;;;;5047288;23;20076;-75
2023/04/12 05:40:08;;;;;;;0.20;0.20;;;5.20;99.90;;;;;;5076233;28;20029;-75
2023/04/12 05:42:35;;;;;;;0.20;0.20;;;5.30;99.90;;;;;;5077281;28;20024;-74
2023/04/12 05:45:02;;;;;;;0.17;0.17;;;5.50;99.90;;;;;;5076829;28;20016;-75
2023/04/12 05:47:27;;;;;;;0.28;0.28;;;5.70;99.90;;;;;;5076355;28;20374;-74
2023/04/12 05:49:56;;;;;;;0.10;0.10;;;5.80;99.90;;;;;;5058443;28;20032;-74
2023/04/12 05:52:21;;;;;;;0.20;0.20;;;6.00;99.90;;;;;;5058628;28;20032;-74
2023/04/12 05:54:47;;;;;;;0.20;0.20;;;6.00;99.90;;;;;;5076871;28;20074;-75
2023/04/12 05:57:14;;;;;;;0.17;0.17;;;6.00;99.90;;;;;;5076476;28;20021;-74
2023/04/12 05:59:39;;;;;;;0.20;0.20;;;5.90;99.90;;;;;;5076689;28;20016;-74
2023/04/12 06:02:06;;;;;;;0.20;0.20;;;5.90;99.90;;;;;;5058236;28;20027;-75
2023/04/12 06:04:31;;;;;;;0.10;0.10;;;6.00;99.90;;;;;;5057960;28;20397;-74
2023/04/12 06:06:57;;;;;;;0.10;0.10;;;6.00;99.90;;;;;;5076620;28;20051;-75
2023/04/12 06:09:26;;;;;;;0.10;0.10;;;6.00;99.90;;;;;;5058667;28;20123;-74
2023/04/12 06:11:52;;;;;;;0.17;0.17;;;6.00;99.90;;;;;;5076327;28;20025;-74
2023/04/12 06:14:17;;;;;;;0.20;0.20;;;6.10;99.90;;;;;;5075675;28;20539;-75
2023/04/12 06:16:43;;;;;;;0.30;0.30;;;6.10;99.90;;;;;;5075595;28;20389;-74
2023/04/12 06:19:09;;;;;;;0.10;0.10;;;6.20;99.90;;;;;;5076165;28;20025;-75
2023/04/12 06:21:35;;;;;;;0.20;0.20;;;6.30;99.90;;;;;;5076258;28;20040;-74
2023/04/12 06:24:01;;;;;;;0.20;0.20;;;6.30;99.90;;;;;;5075537;28;20036;-75
2023/04/12 06:26:26;;;;;;;0.20;0.20;;;6.40;99.90;;;;;;5075822;28;20095;-75
2023/04/12 06:28:52;;;;;;;0.20;0.20;;;6.50;99.90;;;;;;5076243;28;20035;-75
2023/04/12 06:31:17;;;;;;;0.20;0.20;;;6.70;99.90;;;;;;5075428;28;20021;-75
2023/04/12 06:33:43;;;;;;;0.10;0.10;;;6.80;99.90;;;;;;5075644;28;20085;-74
2023/04/12 06:36:10;;;;;;;0.30;0.30;;;7.00;99.90;;;;;;5057294;28;20048;-75
2023/04/12 06:38:35;;;;;;;0.20;0.20;;;7.10;99.90;;;;;;5143648;22;20043;-76
2023/04/12 06:41:01;;;;;;;0.20;0.20;;;7.20;99.90;;;;;;5052609;28;20115;-75
2023/04/12 06:43:26;;;;;;;0.20;0.20;;;7.30;99.90;;;;;;5053333;28;20051;-76
2023/04/12 06:45:52;;;;;;;0.15;0.15;;;7.40;99.90;;;;;;5053627;28;20505;-76
2023/04/12 06:48:18;;;;;;;0.30;0.30;;;7.40;99.90;;;;;;5052114;28;20036;-76
2023/04/12 06:50:44;;;;;;;0.20;0.20;;;7.60;99.90;;;;;;5053947;28;20394;-76
2023/04/12 06:53:12;;;;;;;0.20;0.20;;;7.60;99.90;;;;;;5052327;28;20029;-76
2023/04/12 06:55:40;;;;;;;0.17;0.17;;;7.60;99.90;;;;;;5053621;28;20474;-76
2023/04/12 06:58:06;;;;;;;0.20;0.20;;;7.60;99.90;;;;;;5053258;28;20398;-75
2023/04/12 07:00:31;;;;;;;0.20;0.20;;;7.60;99.90;;;;;;5053943;28;20021;-76
2023/04/12 07:02:57;;;;;;;0.20;0.20;;;7.60;99.90;;;;;;5052300;28;20021;-76
2023/04/12 07:05:22;;;;;;;0.20;0.20;;;7.60;99.90;;;;;;5051678;28;20634;-76
2023/04/12 07:07:48;;;;;;;0.20;0.20;;;7.60;99.90;;;;;;5053690;28;20025;-76
2023/04/12 07:10:13;;;;;;;0.20;0.20;;;7.60;99.90;;;;;;5052399;28;20156;-77
2023/04/12 07:12:40;;;;;;;0.22;0.22;;;7.70;99.90;;;;;;5053181;28;20029;-76
2023/04/12 07:15:07;;;;;;;0.20;0.20;;;7.70;99.90;;;;;;5053265;28;20100;-76
2023/04/12 07:20:05;;;;;;;0.20;0.20;;;7.70;99.90;;;;;;5031827;28;20053;-76
2023/04/12 07:22:31;;;;;;;0.13;0.13;;;7.80;99.90;;;;;;5015131;28;20030;-76
2023/04/12 07:24:57;;;;;;;0.20;0.20;;;7.80;99.90;;;;;;5015751;28;20557;-77
2023/04/12 07:27:22;;;;;;;0.20;0.20;;;7.80;99.90;;;;;;5032663;28;20060;-76
2023/04/12 07:29:51;;;;;;;0.20;0.20;;;8.00;99.90;;;;;;5033157;28;20033;-76
2023/04/12 07:32:16;;;;;;;0.20;0.20;;;7.90;99.90;;;;;;5033048;28;20021;-76
2023/04/12 07:34:42;;;;;;;0.20;0.20;;;8.00;99.90;;;;;;5015328;28;20562;-77
2023/04/12 07:37:07;;;;;;;0.20;0.20;;;8.00;99.90;;;;;;5033026;28;20026;-77
2023/04/12 07:39:33;;;;;;;0.20;0.20;;;8.00;99.90;;;;;;5033262;28;20387;-77
2023/04/12 07:42:02;;;;;;;0.22;0.22;;;8.10;99.90;;;;;;5033015;28;20022;-77
2023/04/12 07:44:27;;;;;;;0.20;0.20;;;8.20;99.90;;;;;;5033029;28;20056;-76
2023/04/12 07:46:53;;;;;;;0.20;0.20;;;8.30;99.90;;;;;;5033271;28;20360;-77
2023/04/12 07:49:18;;;;;;;0.13;0.13;;;8.40;99.90;;;;;;5032584;28;20040;-76
2023/04/12 07:51:44;;;;;;;0.20;0.20;;;8.40;99.90;;;;;;5033084;28;20029;-76
2023/04/12 07:54:09;;;;;;;0.17;0.17;;;8.50;99.90;;;;;;5033052;28;20241;-77
2023/04/12 07:56:35;;;;;;;0.20;0.20;;;8.60;99.90;;;;;;5032597;28;20021;-77
2023/04/12 07:59:01;;;;;;;0.10;0.10;;;8.60;99.90;;;;;;5032537;28;20034;-77
2023/04/12 08:01:27;;;;;;;0.13;0.13;;;8.60;99.90;;;;;;5032995;28;20033;-77
2023/04/12 08:03:52;;;;;;;0.20;0.20;;;8.60;99.90;;;;;;5015738;28;20112;-77
2023/04/12 08:06:18;;;;;;;0.10;0.10;;;8.60;99.90;;;;;;5036971;28;20040;-77
2023/04/12 08:08:43;;;;;;;0.20;0.20;;;8.60;99.90;;;;;;5018954;28;20040;-77
2023/04/12 08:11:09;;;;;;;0.20;0.20;;;8.70;99.90;;;;;;5036861;28;20026;-76
2023/04/12 08:13:35;;;;;;;0.20;0.20;;;8.70;99.90;;;;;;5018135;28;20061;-76
2023/04/12 08:16:00;;;;;;;0.20;0.20;;;8.60;99.90;;;;;;5036362;28;20029;-77
2023/04/12 08:18:28;;;;;;;0.30;0.30;;;8.60;99.90;;;;;;5036622;28;20036;-77
2023/04/12 08:20:54;;;;;;;0.20;0.20;;;8.70;99.90;;;;;;5037027;28;20475;-77
2023/04/12 08:23:20;;;;;;;0.13;0.13;;;8.60;99.90;;;;;;5036995;28;20076;-77
2023/04/12 08:25:48;;;;;;;0.20;0.20;;;8.70;99.90;;;;;;5035843;28;20079;-77
2023/04/12 08:28:14;;;;;;;0.10;0.10;;;8.80;99.90;;;;;;5092670;23;20415;-77
2023/04/12 08:30:39;;;;;;;0.20;0.20;;;8.90;99.90;;;;;;5016855;28;20026;-77
2023/04/12 08:33:05;;;;;;;0.20;0.20;;;9.00;99.90;;;;;;5016532;28;20084;-77
2023/04/12 08:35:31;;;;;;;0.30;0.30;;;9.10;99.90;;;;;;5016706;28;20030;-78
2023/04/12 08:37:57;;;;;;;0.20;0.20;;;9.20;99.90;;;;;;5017967;28;20022;-78
2023/04/12 08:40:22;;;;;;;0.20;0.20;;;9.20;99.90;;;;;;5014951;28;20048;-77
2023/04/12 08:42:50;;;;;;;0.20;0.20;;;9.30;99.90;;;;;;5016255;28;20026;-76
2023/04/12 08:45:16;;;;;;;0.13;0.13;;;9.30;99.90;;;;;;5015087;28;20399;-76
2023/04/12 08:47:47;;;;;;;0.20;0.20;;;9.30;99.90;;;;;;5022644;23;20026;-77
2023/04/12 08:50:24;;;;;;;0.20;0.20;;;9.30;99.90;;;;;;5016137;28;20036;-76
2023/04/12 08:52:57;;;;;;;0.20;0.20;;;9.30;99.90;;;;;;5016155;28;20037;-76
2023/04/12 08:55:25;;;;;;;0.20;0.20;;;9.30;99.90;;;;;;5015587;28;20021;-76
2023/04/12 08:57:55;;;;;;;0.20;0.20;;;9.30;99.90;;;;;;5014455;28;20578;-77
2023/04/12 09:00:21;;;;;;;0.20;0.20;;;9.40;99.90;;;;;;5016019;28;20018;-77
2023/04/12 09:02:47;;;;;;;0.15;0.15;;;9.40;99.90;;;;;;5015735;28;20112;-77
2023/04/12 09:05:16;;;;;;;0.20;0.20;;;9.50;99.90;;;;;;5014419;28;20029;-76
2023/04/12 09:07:42;;;;;;;0.20;0.20;;;9.50;99.90;;;;;;5015896;28;20088;-77
2023/04/12 09:10:07;;;;;;;0.20;0.20;;;9.40;99.90;;;;;;5014155;28;20018;-77
2023/04/12 09:12:33;;;;;;;0.10;0.10;;;9.40;99.90;;;;;;5015640;28;20381;-77
2023/04/12 09:15:11;;;;;;;0.30;0.30;;;9.40;99.90;;;;;;5015419;28;20030;-76
2023/04/12 09:17:38;;;;;;;0.20;0.20;;;9.40;99.90;;;;;;5038917;23;20026;-76
2023/04/12 09:20:16;;;;;;;0.20;0.20;;;9.40;99.90;;;;;;5014688;28;20034;-77
2023/04/12 09:22:45;;;;;;;0.20;0.20;;;9.50;99.90;;;;;;5015487;28;20376;-77
2023/04/12 09:25:11;;;;;;;0.10;0.10;;;9.50;99.90;;;;;;5015412;28;20080;-77
2023/04/12 09:27:46;;;;;;;0.20;0.20;;;9.50;99.90;;;;;;5013846;28;20026;-77
2023/04/12 09:30:13;;;;;;;0.20;0.20;;;9.50;99.90;;;;;;5013660;28;20488;-76
2023/04/12 09:32:38;;;;;;;0.20;0.20;;;9.50;99.90;;;;;;5015299;28;20500;-77
2023/04/12 09:35:04;;;;;;;0.22;0.22;;;9.50;99.90;;;;;;5015074;28;20148;-76
2023/04/12 09:37:30;;;;;;;0.20;0.20;;;9.50;99.90;;;;;;5014946;28;20022;-77
2023/04/12 09:40:00;;;;;;;0.28;0.28;;;9.60;99.90;;;;;;5013920;28;20029;-76
2023/04/12 09:42:27;;;;;;;0.20;0.20;;;9.60;99.90;;;;;;5013706;28;20461;-77
2023/04/12 09:44:53;;;;;;;0.10;0.10;;;9.50;99.90;;;;;;5013541;28;20032;-77
2023/04/12 09:47:19;;;;;;;0.17;0.17;;;9.50;99.90;;;;;;5015031;28;20072;-76
2023/04/12 09:49:45;;;;;;;0.20;0.20;;;9.40;99.90;;;;;;5014871;28;20018;-76
2023/04/12 09:52:14;;;;;;;0.20;0.20;;;9.30;99.90;;;;;;5014719;28;20049;-77
2023/04/12 09:54:48;;;;;;;0.20;0.20;;;9.30;99.90;;;;;;5015057;28;20442;-77
2023/04/12 09:57:17;;;;;;;0.20;0.20;;;9.30;99.90;;;;;;5014505;28;20554;-77
2023/04/12 09:59:44;;;;;;;0.20;0.20;;;9.20;99.90;;;;;;5014603;28;20032;-77
2023/04/12 10:02:14;;;;;;;0.20;0.20;;;9.30;99.90;;;;;;5014662;28;20030;-77
2023/04/12 10:04:41;;;;;;;0.20;0.20;;;9.40;99.90;;;;;;5014804;28;20531;-77
2023/04/12 10:07:09;;;;;;;0.20;0.20;;;9.40;99.90;;;;;;5014417;28;20113;-77
2023/04/12 10:09:38;;;;;;;0.20;0.20;;;9.50;99.90;;;;;;5013963;28;20406;-78
2023/04/12 10:12:04;;;;;;;0.20;0.20;;;9.40;99.90;;;;;;5014971;28;20026;-77
2023/04/12 10:14:30;;;;;;;0.20;0.20;;;9.40;99.90;;;;;;5014376;28;20038;-76
2023/04/12 10:16:59;;;;;;;0.20;0.20;;;9.50;99.90;;;;;;5010088;28;20391;-75
2023/04/12 10:19:27;;;;;;;0.15;0.15;;;9.60;99.90;;;;;;4985583;28;20041;-76
2023/04/12 10:21:54;;;;;;;0.20;0.20;;;9.60;99.90;;;;;;5003671;28;20427;-76
2023/04/12 10:24:21;;;;;;;0.20;0.20;;;9.60;99.90;;;;;;5001214;28;20083;-76
2023/04/12 10:26:49;;;;;;;0.20;0.20;;;9.60;99.90;;;;;;5012588;28;20022;-76
2023/04/12 10:29:35;;;;;;;0.20;0.20;;;9.60;99.90;;;;;;4993471;28;20496;-75
2023/04/12 10:32:22;;;;;;;0.20;0.20;;;9.60;99.90;;;;;;4991084;28;20076;-76
2023/04/12 10:34:57;;;;;;;0.17;0.17;;;9.60;99.90;;;;;;5011882;28;20049;-76
2023/04/12 10:37:57;;;;;;;0.20;0.20;;;9.50;99.90;;;;;;5010983;28;20083;-75
2023/04/12 10:40:22;;;;;;;0.17;0.17;;;9.50;99.90;;;;;;5004117;28;20495;-76
2023/04/12 10:42:55;;;;;;;0.20;0.20;;;9.40;99.90;;;;;;5013318;28;20029;-76
2023/04/12 10:45:24;;;;;;;0.10;0.10;;;9.20;99.90;;;;;;5004849;28;20037;-75
2023/04/12 10:48:00;;;;;;;0.20;0.20;;;9.20;99.90;;;;;;4982300;28;20447;-76
2023/04/12 10:50:31;;;;;;;0.20;0.20;;;9.10;99.90;;;;;;5003661;28;20075;-76
2023/04/12 10:53:20;;;;;;;0.30;0.30;;;9.10;99.90;;;;;;5007782;28;20029;-76
2023/04/12 10:55:46;;;;;;;0.20;0.20;;;9.10;99.90;;;;;;4986956;28;20041;-76
2023/04/12 10:58:49;;;;;;;0.10;0.10;;;9.00;99.90;;;;;;5009958;28;20387;-76
2023/04/12 11:01:20;;;;;;;0.17;0.17;;;9.00;99.90;;;;;;5013158;28;20028;-77
2023/04/12 11:04:07;;;;;;;0.10;0.10;;;8.90;99.90;;;;;;5013775;28;20022;-76
2023/04/12 11:06:52;;;;;;;0.20;0.20;;;8.80;99.90;;;;;;5019707;28;20071;-76
2023/04/12 11:09:32;;;;;;;0.20;0.20;;;8.80;99.90;;;;;;5072144;22;20042;-76
2023/04/12 11:12:14;;;;;;;0.20;0.20;;;8.80;99.90;;;;;;5013777;28;20101;-76
2023/04/12 11:14:50;;;;;;;0.20;0.20;;;8.60;99.90;;;;;;5013789;28;20026;-77
2023/04/12 11:17:16;;;;;;;0.20;0.20;;;8.50;99.90;;;;;;5013016;28;20496;-75
2023/04/12 11:19:53;;;;;;;0.10;0.10;;;8.40;99.90;;;;;;5013844;28;20166;-77
2023/04/12 11:22:21;;;;;;;0.20;0.20;;;8.50;99.90;;;;;;5013754;28;20018;-76
2023/04/12 11:24:52;;;;;;;0.10;0.10;;;8.30;99.90;;;;;;5013606;28;20022;-76
2023/04/12 11:27:22;;;;;;;0.20;0.20;;;8.30;99.90;;;;;;5013639;28;20101;-76
2023/04/12 11:29:53;;;;;;;0.20;0.20;;;8.20;99.90;;;;;;5013047;28;20132;-76
2023/04/12 11:32:20;;;;;;;0.10;0.10;;;8.20;99.90;;;;;;5012335;28;20104;-76
2023/04/12 11:34:46;;;;;;;0.10;0.10;;;8.10;99.90;;;;;;5013536;28;20105;-76
2023/04/12 11:37:12;;;;;;;0.10;0.10;;;8.20;99.90;;;;;;5012566;28;20018;-76
2023/04/12 11:39:43;;;;;;;0.10;0.10;;;8.10;99.90;;;;;;5056074;23;20479;-76
2023/04/12 11:42:19;;;;;;;0.10;0.10;;;8.10;99.90;;;;;;5037205;28;20017;-75
2023/04/12 11:44:46;;;;;;;0.10;0.10;;;8.10;99.90;;;;;;5037592;28;20018;-77
2023/04/12 11:47:17;;;;;;;0.20;0.20;;;8.00;99.90;;;;;;5037449;28;20057;-77
2023/04/12 11:49:47;;;;;;;0.20;0.20;;;8.00;99.90;;;;;;5019257;28;20507;-77
2023/04/12 11:52:15;;;;;;;0.17;0.17;;;8.00;99.90;;;;;;5037056;28;20578;-76
2023/04/12 11:54:45;;;;;;;0.20;0.20;;;7.90;99.90;;;;;;5018699;28;20061;-77
2023/04/12 11:57:12;;;;;;;0.13;0.13;;;7.90;99.90;;;;;;5019126;28;20047;-77
2023/04/12 11:59:38;;;;;;;0.20;0.20;;;7.90;99.90;;;;;;5052191;23;20057;-77
2023/04/12 12:02:06;;;;;;;0.10;0.10;;;7.90;99.90;;;;;;5048092;28;20375;-77
2023/04/12 12:04:31;;;;;;;0.20;0.20;;;7.90;99.90;;;;;;5050278;28;20075;-77
2023/04/12 12:07:00;;;;;;;0.20;0.20;;;7.80;99.90;;;;;;5036783;28;20390;-77
2023/04/12 12:09:26;;;;;;;0.20;0.20;;;7.90;99.90;;;;;;5002345;28;20034;-77
2023/04/12 12:11:53;;;;;;;0.20;0.20;;;7.90;99.90;;;;;;5017093;28;20443;-77
2023/04/12 12:14:19;;;;;;;0.20;0.20;;;7.90;99.90;;;;;;5016495;28;20049;-78
2023/04/12 12:16:55;;;;;;;0.20;0.20;;;7.90;99.90;;;;;;5017049;28;20105;-77
2023/04/12 12:19:32;;;;;;;0.17;0.17;;;7.90;99.90;;;;;;5113298;23;20052;-77
2023/04/12 12:22:21;;;;;;;0.10;0.10;;;7.80;99.90;;;;;;5036216;28;20018;-77
2023/04/12 12:24:50;;;;;;;0.20;0.20;;;7.80;99.90;;;;;;5037391;28;20514;-77
2023/04/12 12:27:22;;;;;;;0.20;0.20;;;7.80;99.90;;;;;;5035318;28;20026;-77
2023/04/12 12:29:53;;;;;;;0.20;0.20;;;7.80;99.90;;;;;;5036585;28;20021;-76
2023/04/12 12:32:22;;;;;;;0.20;0.20;;;7.80;99.90;;;;;;5036319;28;20041;-77
2023/04/12 12:34:55;;;;;;;0.20;0.20;;;7.70;99.90;;;;;;5034863;28;20040;-77
2023/04/12 12:37:25;;;;;;;;;;;7.60;99.90;;;;;;5019528;28;20526;-78
2023/04/12 12:40:15;;;;;;;0.15;0.15;;;7.60;99.90;;;;;;5054218;22;19988;-79
2023/04/12 12:42:49;;;;;;;0.20;0.20;;;7.60;99.90;;;;;;5002597;28;20108;-78
2023/04/12 12:45:16;;;;;;;0.17;0.17;;;7.60;99.90;;;;;;5019204;28;20152;-79
2023/04/12 12:47:49;;;;;;;0.20;0.20;;;7.60;99.90;;;;;;5017753;28;20022;-78
2023/04/12 12:50:16;;;;;;;0.20;0.20;;;7.60;99.90;;;;;;5017131;28;20022;-77
2023/04/12 12:52:44;;;;;;;0.20;0.20;;;7.60;99.90;;;;;;5018430;28;20518;-81
2023/04/12 12:55:10;;;;;;;0.10;0.10;;;7.50;99.90;;;;;;5017665;28;20029;-77
2023/04/12 12:57:35;;;;;;;0.20;0.20;;;7.40;99.90;;;;;;5018113;28;20026;-77
2023/04/12 13:00:01;;;;;;;0.17;0.17;;;7.50;99.90;;;;;;5018131;28;20081;-77
2023/04/12 13:02:26;;;;;;;0.10;0.10;;;7.40;99.90;;;;;;5018324;28;20479;-74
2023/04/12 13:04:52;;;;;;;0.20;0.20;;;7.40;99.90;;;;;;4993267;28;20023;-77
2023/04/12 13:07:23;;;;;;;0.20;0.20;;;7.40;99.90;;;;;;5017546;28;20026;-80
2023/04/12 13:09:49;;;;;;;0.20;0.20;;;7.30;99.90;;;;;;5005461;28;20472;-81